createdAt,value
2022-10-13T00:01:31.294Z,7.76
2022-10-13T00:04:18.485Z,7.82
2022-10-13T00:07:05.960Z,7.86
2022-10-13T00:09:54.699Z,7.81
2022-10-13T00:12:41.908Z,7.76
2022-10-13T00:15:29.792Z,7.70
2022-10-13T00:18:17.910Z,7.63
2022-10-13T00:21:09.297Z,7.60
2022-10-13T00:23:56.902Z,7.57
2022-10-13T00:26:46.169Z,7.55
2022-10-13T00:29:39.646Z,7.52
2022-10-13T00:32:27.135Z,7.49
2022-10-13T00:35:14.511Z,7.44
2022-10-13T00:38:01.896Z,7.42
2022-10-13T00:40:54.814Z,7.37
2022-10-13T00:43:57.409Z,7.33
2022-10-13T00:46:44.661Z,7.36
2022-10-13T00:49:32.090Z,7.36
2022-10-13T00:52:22.253Z,7.34
2022-10-13T00:55:12.023Z,7.25
2022-10-13T00:58:05.189Z,7.21
2022-10-13T01:00:54.611Z,7.18
2022-10-13T01:03:42.363Z,7.17
2022-10-13T01:06:30.663Z,7.16
2022-10-13T01:09:17.674Z,7.20
2022-10-13T01:12:14.028Z,7.32
2022-10-13T01:15:09.960Z,7.21
2022-10-13T01:18:09.371Z,7.11
2022-10-13T01:21:07.954Z,7.10
2022-10-13T01:24:27.237Z,7.07
2022-10-13T01:27:31.844Z,7.03
2022-10-13T01:30:22.851Z,6.99
2022-10-13T01:33:27.566Z,6.95
2022-10-13T01:36:23.420Z,6.97
2022-10-13T01:39:19.701Z,6.91
2022-10-13T01:42:14.362Z,6.88
2022-10-13T01:45:03.575Z,6.90
2022-10-13T01:47:54.201Z,6.91
2022-10-13T01:50:41.715Z,6.93
2022-10-13T01:53:30.950Z,7.00
2022-10-13T01:56:18.741Z,7.01
2022-10-13T01:59:12.646Z,7.00
2022-10-13T02:02:10.244Z,6.98
2022-10-13T02:05:08.898Z,6.91
2022-10-13T02:08:03.099Z,6.89
2022-10-13T02:10:58.526Z,6.88
2022-10-13T02:13:52.069Z,6.87
2022-10-13T02:16:45.603Z,6.87
2022-10-13T02:19:37.260Z,6.92
2022-10-13T02:22:32.210Z,6.97
2022-10-13T02:25:23.017Z,6.90
2022-10-13T02:28:13.762Z,6.90
2022-10-13T02:31:03.988Z,6.88
2022-10-13T02:33:51.856Z,6.81
2022-10-13T02:36:39.660Z,6.82
2022-10-13T02:39:28.718Z,6.85
2022-10-13T02:42:16.481Z,6.86
2022-10-13T02:45:05.292Z,6.88
2022-10-13T02:47:52.553Z,6.84
2022-10-13T02:50:39.427Z,6.92
2022-10-13T02:53:26.919Z,7.01
2022-10-13T02:56:17.343Z,7.05
2022-10-13T02:59:04.634Z,7.16
2022-10-13T03:01:51.681Z,7.52
2022-10-13T03:04:39.402Z,7.46
2022-10-13T03:07:26.640Z,7.40
2022-10-13T03:10:13.851Z,7.39
2022-10-13T03:13:02.766Z,7.48
2022-10-13T03:15:50.160Z,7.51
2022-10-13T03:18:37.273Z,7.51
2022-10-13T03:21:25.064Z,7.54
2022-10-13T03:24:12.514Z,7.58
2022-10-13T03:26:59.585Z,7.63
2022-10-13T03:29:48.096Z,7.78
2022-10-13T03:32:36.009Z,7.82
2022-10-13T03:35:23.263Z,7.79
2022-10-13T03:38:11.326Z,7.78
2022-10-13T03:40:59.718Z,7.72
2022-10-13T03:43:47.457Z,8.01
2022-10-13T03:46:36.372Z,7.89
2022-10-13T03:49:23.821Z,7.76
2022-10-13T03:52:11.186Z,7.75
2022-10-13T03:54:59.026Z,7.70
2022-10-13T03:57:46.169Z,7.84
2022-10-13T04:00:33.717Z,7.81
2022-10-13T04:03:23.075Z,8.10
2022-10-13T04:06:11.273Z,8.39
2022-10-13T04:08:59.167Z,8.52
2022-10-13T04:11:46.287Z,8.63
2022-10-13T04:14:33.708Z,8.74
2022-10-13T04:17:28.274Z,8.75
2022-10-13T04:20:17.405Z,8.83
2022-10-13T04:23:05.528Z,8.84
2022-10-13T04:25:53.207Z,8.77
2022-10-13T04:28:40.192Z,8.56
2022-10-13T04:31:30.592Z,8.77
2022-10-13T04:34:18.128Z,8.88
2022-10-13T04:37:06.780Z,8.96
2022-10-13T04:39:54.363Z,8.92
2022-10-13T04:42:41.974Z,8.94
2022-10-13T04:45:29.859Z,8.90
2022-10-13T04:48:17.287Z,8.61
2022-10-13T04:51:07.208Z,8.55
2022-10-13T04:54:01.259Z,8.84
2022-10-13T04:56:49.085Z,8.78
2022-10-13T04:59:36.344Z,8.80
2022-10-13T05:02:24.201Z,8.86
2022-10-13T05:05:12.588Z,9.01
2022-10-13T05:08:00.011Z,8.83
2022-10-13T05:10:56.311Z,8.87
2022-10-13T05:13:43.807Z,8.97
2022-10-13T05:16:31.252Z,9.05
2022-10-13T05:19:18.699Z,9.10
2022-10-13T05:22:06.036Z,9.06
2022-10-13T05:24:53.694Z,9.06
2022-10-13T05:27:42.708Z,9.08
2022-10-13T05:30:30.364Z,9.09
2022-10-13T05:33:19.900Z,8.94
2022-10-13T05:36:08.996Z,9.02
2022-10-13T05:38:59.404Z,8.93
2022-10-13T05:41:46.753Z,8.81
2022-10-13T05:44:36.423Z,8.93
2022-10-13T05:47:28.083Z,9.09
2022-10-13T05:50:17.077Z,9.11
2022-10-13T05:53:04.928Z,8.98
2022-10-13T05:55:55.776Z,8.97
2022-10-13T05:58:48.718Z,9.24
2022-10-13T06:01:40.873Z,9.27
2022-10-13T06:04:35.582Z,9.18
2022-10-13T06:07:23.334Z,9.22
2022-10-13T06:10:12.251Z,9.31
2022-10-13T06:12:59.561Z,9.41
2022-10-13T06:15:47.111Z,9.42
2022-10-13T06:18:35.961Z,9.42
2022-10-13T06:21:24.215Z,9.47
2022-10-13T06:24:12.032Z,9.42
2022-10-13T06:26:59.622Z,9.35
2022-10-13T06:29:47.144Z,9.65
2022-10-13T06:32:34.651Z,9.67
2022-10-13T06:35:23.344Z,9.65
2022-10-13T06:38:10.660Z,9.57
2022-10-13T06:41:02.015Z,9.60
2022-10-13T06:43:51.479Z,9.73
2022-10-13T06:46:39.174Z,9.73
2022-10-13T06:49:26.546Z,9.86
2022-10-13T06:52:15.485Z,9.86
2022-10-13T06:55:02.923Z,9.88
2022-10-13T06:57:50.543Z,9.91
2022-10-13T07:00:37.751Z,9.85
2022-10-13T07:03:26.070Z,9.98
2022-10-13T07:06:13.234Z,10.05
2022-10-13T07:09:05.116Z,10.12
2022-10-13T07:11:52.558Z,10.02
2022-10-13T07:14:43.101Z,10.07
2022-10-13T07:17:31.572Z,9.93
2022-10-13T07:20:18.829Z,10.10
2022-10-13T07:23:06.090Z,10.14
2022-10-13T07:25:56.888Z,10.16
2022-10-13T07:28:45.369Z,10.27
2022-10-13T07:31:32.820Z,10.31
2022-10-13T07:34:20.530Z,10.44
2022-10-13T07:37:07.918Z,10.33
2022-10-13T07:39:55.566Z,10.52
2022-10-13T07:42:44.275Z,10.48
2022-10-13T07:45:32.091Z,10.64
2022-10-13T07:48:19.576Z,10.66
2022-10-13T07:51:09.504Z,10.61
2022-10-13T07:53:56.560Z,10.60
2022-10-13T07:56:43.682Z,10.85
2022-10-13T07:59:34.008Z,10.94
2022-10-13T08:02:22.164Z,11.18
2022-10-13T08:05:10.224Z,11.39
2022-10-13T08:07:58.592Z,11.67
2022-10-13T08:10:45.839Z,12.01
2022-10-13T08:13:33.016Z,12.08
2022-10-13T08:16:30.536Z,12.11
2022-10-13T08:19:20.313Z,12.26
2022-10-13T08:22:09.720Z,12.27
2022-10-13T08:24:57.659Z,12.45
2022-10-13T08:27:55.767Z,12.64
2022-10-13T08:30:47.970Z,12.75
2022-10-13T08:33:37.052Z,12.87
2022-10-13T08:36:26.638Z,12.80
2022-10-13T08:39:14.111Z,12.86
2022-10-13T08:42:02.104Z,12.92
2022-10-13T08:45:22.133Z,12.70
2022-10-13T08:48:04.555Z,12.75
2022-10-13T08:50:57.163Z,12.88
2022-10-13T08:53:47.472Z,13.15
2022-10-13T08:56:36.734Z,13.24
2022-10-13T08:59:24.645Z,13.24
2022-10-13T09:02:15.362Z,13.40
2022-10-13T09:05:04.424Z,13.48
2022-10-13T09:07:54.845Z,13.47
2022-10-13T09:10:50.434Z,13.58
2022-10-13T09:13:44.114Z,13.69
2022-10-13T09:16:35.941Z,13.97
2022-10-13T09:19:28.679Z,14.14
2022-10-13T09:22:23.704Z,14.26
2022-10-13T09:25:19.666Z,14.38
2022-10-13T09:28:12.610Z,14.48
2022-10-13T09:31:07.168Z,14.64
2022-10-13T09:34:01.460Z,14.69
2022-10-13T09:37:00.219Z,14.68
2022-10-13T09:39:48.351Z,14.67
2022-10-13T09:42:37.291Z,14.65
2022-10-13T09:45:26.590Z,14.74
2022-10-13T09:48:22.026Z,15.00
2022-10-13T09:51:32.120Z,14.86
2022-10-13T09:54:29.655Z,14.76
2022-10-13T09:57:30.655Z,14.71
2022-10-13T10:00:22.877Z,14.80
2022-10-13T10:03:18.452Z,14.81
2022-10-13T10:09:06.713Z,14.96
2022-10-13T10:11:56.210Z,14.91
2022-10-13T10:14:43.780Z,14.87
2022-10-13T10:17:39.751Z,14.92
2022-10-13T10:20:43.020Z,14.94
2022-10-13T10:23:40.640Z,14.94
2022-10-13T10:26:35.052Z,14.84
2022-10-13T10:29:33.794Z,14.83
2022-10-13T10:32:29.437Z,15.00
2022-10-13T10:35:23.823Z,15.19
2022-10-13T10:38:26.681Z,15.24
2022-10-13T10:41:26.230Z,15.25
2022-10-13T10:44:18.406Z,15.45
2022-10-13T10:47:09.011Z,15.51
2022-10-13T10:50:03.260Z,15.48
2022-10-13T10:53:00.091Z,15.48
2022-10-13T10:55:54.275Z,15.52
2022-10-13T10:58:49.219Z,15.46
2022-10-13T11:01:43.526Z,15.50
2022-10-13T11:04:40.409Z,15.49
2022-10-13T11:07:58.073Z,15.37
2022-10-13T11:10:45.542Z,15.36
2022-10-13T11:13:52.512Z,15.38
2022-10-13T11:16:41.815Z,15.52
2022-10-13T11:19:35.518Z,15.45
2022-10-13T11:22:25.173Z,15.46
2022-10-13T11:25:39.714Z,15.48
2022-10-13T11:28:47.762Z,15.54
2022-10-13T11:31:54.463Z,15.62
2022-10-13T11:34:59.599Z,15.88
2022-10-13T11:38:06.730Z,16.04
2022-10-13T11:41:14.383Z,16.13
2022-10-13T11:44:08.189Z,16.18
2022-10-13T11:47:05.501Z,16.14
2022-10-13T11:50:04.990Z,16.12
2022-10-13T11:53:16.311Z,16.03
2022-10-13T11:56:05.565Z,15.97
2022-10-13T11:58:53.330Z,15.95
2022-10-13T12:01:45.759Z,16.07
2022-10-13T12:04:35.718Z,16.11
2022-10-13T12:07:23.730Z,16.21
2022-10-13T12:10:22.059Z,16.39
2022-10-13T12:13:22.248Z,16.53
2022-10-13T12:16:09.637Z,16.67
2022-10-13T12:19:09.074Z,16.74
2022-10-13T12:21:59.661Z,16.75
2022-10-13T12:24:58.469Z,16.65
2022-10-13T12:27:49.658Z,16.55
2022-10-13T12:30:38.161Z,16.48
2022-10-13T12:33:30.488Z,16.38
2022-10-13T12:36:20.175Z,16.33
2022-10-13T12:39:13.245Z,16.39
2022-10-13T12:42:03.614Z,16.71
2022-10-13T12:44:51.530Z,16.80
2022-10-13T12:47:48.496Z,16.78
2022-10-13T12:50:38.351Z,16.86
2022-10-13T12:53:30.292Z,16.91
2022-10-13T12:56:30.380Z,17.02
2022-10-13T12:59:20.113Z,17.22
2022-10-13T13:02:21.972Z,17.18
2022-10-13T13:05:32.880Z,17.37
2022-10-13T13:08:27.026Z,17.60
2022-10-13T13:11:23.020Z,17.53
2022-10-13T13:14:37.385Z,17.60
2022-10-13T13:20:38.056Z,17.71
2022-10-13T13:23:27.237Z,17.44
2022-10-13T13:26:16.892Z,17.25
2022-10-13T13:29:04.239Z,17.13
2022-10-13T13:31:51.813Z,17.10
2022-10-13T13:34:39.202Z,17.06
2022-10-13T13:37:32.094Z,16.98
2022-10-13T13:40:22.344Z,17.25
2022-10-13T13:43:10.241Z,17.12
2022-10-13T13:45:57.636Z,16.99
2022-10-13T13:48:45.048Z,16.92
2022-10-13T13:51:32.862Z,16.93
2022-10-13T13:54:22.136Z,16.91
2022-10-13T13:57:10.952Z,16.97
2022-10-13T13:59:57.831Z,16.85
2022-10-13T14:02:46.890Z,16.70
2022-10-13T14:05:34.748Z,16.61
2022-10-13T14:08:22.320Z,16.58
2022-10-13T14:11:11.113Z,16.54
2022-10-13T14:14:02.166Z,16.54
2022-10-13T14:16:50.327Z,16.59
2022-10-13T14:19:38.090Z,16.63
2022-10-13T14:22:26.383Z,16.63
2022-10-13T14:25:13.965Z,16.59
2022-10-13T14:28:02.931Z,16.53
2022-10-13T14:30:50.708Z,16.54
2022-10-13T14:33:38.470Z,16.59
2022-10-13T14:36:26.659Z,16.66
2022-10-13T14:39:14.445Z,16.64
2022-10-13T14:42:02.003Z,16.47
2022-10-13T14:44:50.660Z,16.39
2022-10-13T14:47:38.148Z,16.32
2022-10-13T14:50:25.749Z,16.32
2022-10-13T14:53:17.691Z,16.25
2022-10-13T14:56:15.794Z,16.26
2022-10-13T14:59:11.604Z,16.22
2022-10-13T15:02:00.842Z,16.23
2022-10-13T15:04:48.024Z,16.19
2022-10-13T15:07:40.237Z,16.10
2022-10-13T15:10:28.721Z,16.15
2022-10-13T15:13:16.633Z,16.05
2022-10-13T15:16:04.885Z,16.03
2022-10-13T15:18:53.647Z,15.99
2022-10-13T15:21:41.649Z,15.93
2022-10-13T15:24:28.907Z,15.89
2022-10-13T15:27:16.895Z,16.04
2022-10-13T15:30:04.309Z,15.93
2022-10-13T15:32:52.805Z,15.79
2022-10-13T15:35:41.786Z,15.74
2022-10-13T15:38:29.584Z,15.63
2022-10-13T15:41:17.546Z,15.59
2022-10-13T15:44:04.882Z,15.52
2022-10-13T15:47:07.433Z,15.52
2022-10-13T15:49:56.454Z,15.59
2022-10-13T15:52:45.719Z,15.56
2022-10-13T15:55:34.461Z,15.62
2022-10-13T15:58:22.975Z,15.50
2022-10-13T16:01:11.508Z,15.38
2022-10-13T16:03:59.446Z,15.43
2022-10-13T16:06:47.103Z,15.35
2022-10-13T16:09:35.802Z,15.23
2022-10-13T16:12:24.257Z,15.14
2022-10-13T16:15:12.494Z,15.06
2022-10-13T16:17:59.597Z,15.00
2022-10-13T16:20:47.311Z,14.94
2022-10-13T16:23:34.680Z,14.84
2022-10-13T16:26:25.226Z,14.94
2022-10-13T16:29:13.183Z,14.88
2022-10-13T16:32:00.923Z,14.47
2022-10-13T16:34:49.080Z,14.18
2022-10-13T16:37:39.521Z,13.90
2022-10-13T16:40:26.952Z,13.77
2022-10-13T16:43:15.734Z,13.70
2022-10-13T16:46:09.324Z,13.63
2022-10-13T16:48:56.863Z,13.47
2022-10-13T16:51:44.119Z,13.49
2022-10-13T16:54:33.026Z,13.42
2022-10-13T16:57:22.008Z,13.38
2022-10-13T17:00:13.120Z,13.28
2022-10-13T17:03:00.353Z,13.22
2022-10-13T17:05:47.803Z,13.27
2022-10-13T17:08:35.426Z,13.28
2022-10-13T17:11:24.787Z,13.28
2022-10-13T17:14:12.265Z,13.49
2022-10-13T17:17:01.194Z,13.56
2022-10-13T17:19:48.445Z,13.80
2022-10-13T17:22:36.127Z,13.81
2022-10-13T17:25:23.581Z,13.55
2022-10-13T17:28:11.045Z,13.52
2022-10-13T17:31:00.145Z,13.49
2022-10-13T17:33:49.758Z,13.52
2022-10-13T17:36:37.660Z,13.64
2022-10-13T17:39:31.156Z,13.57
2022-10-13T17:42:18.991Z,13.38
2022-10-13T17:45:08.728Z,13.29
2022-10-13T17:47:58.744Z,13.33
2022-10-13T17:50:50.537Z,13.37
2022-10-13T17:53:40.484Z,13.51
2022-10-13T17:56:30.663Z,13.44
2022-10-13T17:59:20.095Z,13.24
2022-10-13T18:02:08.020Z,13.24
2022-10-13T18:04:55.525Z,13.22
2022-10-13T18:07:44.041Z,13.21
2022-10-13T18:10:50.863Z,13.23
2022-10-13T18:13:41.183Z,13.22
2022-10-13T18:16:28.927Z,13.26
2022-10-13T18:19:16.406Z,13.18
2022-10-13T18:22:04.002Z,13.27
2022-10-13T18:24:56.953Z,13.40
2022-10-13T18:27:45.421Z,13.41
2022-10-13T18:30:33.828Z,13.27
2022-10-13T18:33:20.999Z,13.21
2022-10-13T18:36:17.078Z,13.10
2022-10-13T18:39:07.364Z,13.03
2022-10-13T18:41:58.372Z,12.91
2022-10-13T18:44:54.491Z,13.06
2022-10-13T18:47:42.592Z,13.16
2022-10-13T18:50:29.587Z,13.22
2022-10-13T18:53:18.087Z,13.33
2022-10-13T18:56:07.882Z,13.27
2022-10-13T18:59:00.212Z,13.19
2022-10-13T19:01:48.438Z,13.22
2022-10-13T19:04:37.319Z,13.16
2022-10-13T19:07:25.043Z,13.13
2022-10-13T19:10:13.962Z,13.18
2022-10-13T19:13:02.366Z,13.34
2022-10-13T19:15:51.348Z,13.26
2022-10-13T19:18:39.384Z,13.30
2022-10-13T19:21:26.880Z,13.20
2022-10-13T19:24:14.742Z,13.07
2022-10-13T19:27:02.250Z,12.95
2022-10-13T19:29:53.345Z,12.70
2022-10-13T19:32:42.141Z,12.58
2022-10-13T19:35:29.754Z,12.60
2022-10-13T19:38:17.685Z,12.57
2022-10-13T19:41:08.096Z,12.57
2022-10-13T19:43:55.813Z,12.47
2022-10-13T19:46:48.763Z,12.45
2022-10-13T19:49:37.312Z,12.43
2022-10-13T19:52:25.855Z,12.46
2022-10-13T19:55:15.465Z,12.53
2022-10-13T19:58:02.822Z,12.55
2022-10-13T20:00:50.628Z,12.56
2022-10-13T20:03:38.569Z,12.52
2022-10-13T20:06:27.193Z,12.52
2022-10-13T20:09:15.052Z,12.54
2022-10-13T20:12:02.404Z,12.62
2022-10-13T20:14:50.687Z,12.74
2022-10-13T20:17:38.585Z,12.91
2022-10-13T20:20:25.957Z,12.94
2022-10-13T20:23:14.989Z,12.80
2022-10-13T20:26:06.765Z,12.73
2022-10-13T20:28:55.682Z,12.76
2022-10-13T20:31:43.175Z,12.82
2022-10-13T20:34:30.716Z,12.69
2022-10-13T20:37:18.360Z,12.65
2022-10-13T20:40:08.135Z,12.63
2022-10-13T20:42:55.585Z,12.72
2022-10-13T20:45:42.962Z,12.84
2022-10-13T20:48:51.198Z,12.82
2022-10-13T20:51:40.320Z,12.64
2022-10-13T20:54:27.875Z,12.63
2022-10-13T20:57:16.433Z,12.58
2022-10-13T21:00:08.374Z,12.58
2022-10-13T21:03:01.154Z,12.57
2022-10-13T21:05:50.420Z,12.51
2022-10-13T21:08:38.840Z,12.48
2022-10-13T21:11:26.310Z,12.47
2022-10-13T21:14:15.411Z,12.43
2022-10-13T21:17:02.854Z,12.43
2022-10-13T21:19:50.127Z,12.43
2022-10-13T21:22:37.288Z,12.32
2022-10-13T21:25:31.067Z,12.36
2022-10-13T21:28:19.567Z,12.44
2022-10-13T21:31:11.471Z,12.46
2022-10-13T21:33:59.252Z,12.45
2022-10-13T21:36:46.873Z,12.58
2022-10-13T21:39:34.219Z,12.77
2022-10-13T21:42:23.215Z,12.98
2022-10-13T21:45:11.579Z,13.06
2022-10-13T21:48:00.629Z,12.84
2022-10-13T21:50:49.508Z,12.75
2022-10-13T21:53:37.026Z,12.92
2022-10-13T21:56:25.818Z,12.92
2022-10-13T21:59:14.781Z,12.74
2022-10-13T22:02:02.496Z,12.68
2022-10-13T22:04:51.814Z,12.68
2022-10-13T22:07:39.278Z,12.68
2022-10-13T22:10:26.474Z,12.76
2022-10-13T22:13:15.170Z,12.70
2022-10-13T22:16:04.647Z,12.64
2022-10-13T22:19:01.299Z,12.75
2022-10-13T22:21:51.245Z,12.61
2022-10-13T22:24:38.494Z,12.52
2022-10-13T22:27:25.732Z,12.60
2022-10-13T22:30:13.870Z,12.59
2022-10-13T22:33:01.299Z,12.56
2022-10-13T22:35:48.677Z,12.53
2022-10-13T22:38:37.711Z,12.62
2022-10-13T22:41:27.748Z,12.62
2022-10-13T22:44:15.401Z,12.64
2022-10-13T22:47:02.831Z,12.80
2022-10-13T22:49:50.058Z,12.84
2022-10-13T22:52:37.912Z,12.76
2022-10-13T22:55:26.622Z,12.78
2022-10-13T22:58:13.784Z,12.79
2022-10-13T23:01:06.403Z,12.61
2022-10-13T23:03:55.502Z,12.57
2022-10-13T23:06:43.444Z,12.70
2022-10-13T23:09:31.147Z,12.89
2022-10-13T23:12:19.675Z,12.83
2022-10-13T23:15:08.182Z,12.68
2022-10-13T23:17:55.441Z,12.61
2022-10-13T23:20:43.896Z,12.74
2022-10-13T23:23:34.461Z,12.73
2022-10-13T23:26:21.876Z,12.89
2022-10-13T23:29:11.470Z,12.79
2022-10-13T23:31:59.024Z,12.73
2022-10-13T23:34:47.084Z,12.66
2022-10-13T23:37:35.045Z,12.64
2022-10-13T23:40:22.814Z,12.69
2022-10-13T23:43:09.899Z,12.72
2022-10-13T23:45:59.328Z,12.63
2022-10-13T23:48:47.752Z,12.60
2022-10-13T23:51:35.241Z,12.56
2022-10-13T23:54:22.470Z,12.56
2022-10-13T23:57:09.775Z,12.52
2022-10-13T23:59:57.171Z,12.52
